sensor_id;sensor_type;location;lat;lon;timestamp;P1;durP1;ratioP1;P2;durP2;ratioP2
55150;SDS011;41041;43.162;20.538;2023-07-16T00:01:07;11.98;;;7.75;;
55150;SDS011;41041;43.162;20.538;2023-07-16T00:06:01;15.63;;;9.38;;
55150;SDS011;41041;43.162;20.538;2023-07-16T00:08:27;11.48;;;7.65;;
55150;SDS011;41041;43.162;20.538;2023-07-16T00:10:53;12.02;;;7.93;;
55150;SDS011;41041;43.162;20.538;2023-07-16T00:13:21;11.90;;;7.50;;
55150;SDS011;41041;43.162;20.538;2023-07-16T00:15:47;14.65;;;8.85;;
55150;SDS011;41041;43.162;20.538;2023-07-16T00:18:13;14.13;;;7.72;;
55150;SDS011;41041;43.162;20.538;2023-07-16T00:20:39;11.52;;;8.63;;
55150;SDS011;41041;43.162;20.538;2023-07-16T00:23:05;10.52;;;7.68;;
55150;SDS011;41041;43.162;20.538;2023-07-16T00:25:31;11.00;;;7.80;;
55150;SDS011;41041;43.162;20.538;2023-07-16T00:28:00;9.35;;;7.05;;
55150;SDS011;41041;43.162;20.538;2023-07-16T00:30:26;13.45;;;7.40;;
55150;SDS011;41041;43.162;20.538;2023-07-16T00:32:52;13.15;;;7.45;;
55150;SDS011;41041;43.162;20.538;2023-07-16T00:35:18;9.45;;;7.07;;
55150;SDS011;41041;43.162;20.538;2023-07-16T00:37:44;12.15;;;7.72;;
55150;SDS011;41041;43.162;20.538;2023-07-16T00:40:11;15.00;;;8.10;;
55150;SDS011;41041;43.162;20.538;2023-07-16T00:42:37;9.23;;;7.43;;
55150;SDS011;41041;43.162;20.538;2023-07-16T00:45:04;16.45;;;7.60;;
55150;SDS011;41041;43.162;20.538;2023-07-16T00:47:34;11.60;;;7.50;;
55150;SDS011;41041;43.162;20.538;2023-07-16T00:50:01;12.88;;;7.50;;
55150;SDS011;41041;43.162;20.538;2023-07-16T00:52:27;12.25;;;7.80;;
55150;SDS011;41041;43.162;20.538;2023-07-16T00:54:53;12.02;;;7.60;;
55150;SDS011;41041;43.162;20.538;2023-07-16T00:57:19;13.68;;;8.00;;
55150;SDS011;41041;43.162;20.538;2023-07-16T00:59:46;11.02;;;7.63;;
55150;SDS011;41041;43.162;20.538;2023-07-16T01:02:12;12.32;;;8.00;;
55150;SDS011;41041;43.162;20.538;2023-07-16T01:04:38;13.00;;;7.32;;
55150;SDS011;41041;43.162;20.538;2023-07-16T01:07:04;11.82;;;7.85;;
55150;SDS011;41041;43.162;20.538;2023-07-16T01:09:32;14.18;;;7.28;;
55150;SDS011;41041;43.162;20.538;2023-07-16T01:14:51;10.38;;;7.22;;
55150;SDS011;41041;43.162;20.538;2023-07-16T01:17:17;11.73;;;7.63;;
55150;SDS011;41041;43.162;20.538;2023-07-16T01:22:27;14.27;;;7.82;;
55150;SDS011;41041;43.162;20.538;2023-07-16T01:30:15;10.10;;;7.65;;
55150;SDS011;41041;43.162;20.538;2023-07-16T01:32:41;11.23;;;7.05;;
55150;SDS011;41041;43.162;20.538;2023-07-16T01:35:07;10.88;;;7.63;;
55150;SDS011;41041;43.162;20.538;2023-07-16T01:37:34;10.75;;;7.10;;
55150;SDS011;41041;43.162;20.538;2023-07-16T01:40:01;11.73;;;7.20;;
55150;SDS011;41041;43.162;20.538;2023-07-16T01:42:28;13.07;;;7.63;;
55150;SDS011;41041;43.162;20.538;2023-07-16T01:44:54;9.68;;;7.40;;
55150;SDS011;41041;43.162;20.538;2023-07-16T01:49:55;11.15;;;7.85;;
55150;SDS011;41041;43.162;20.538;2023-07-16T01:52:21;10.30;;;7.30;;
55150;SDS011;41041;43.162;20.538;2023-07-16T01:54:48;12.38;;;7.25;;
55150;SDS011;41041;43.162;20.538;2023-07-16T01:57:14;9.13;;;7.53;;
55150;SDS011;41041;43.162;20.538;2023-07-16T01:59:40;9.55;;;7.38;;
55150;SDS011;41041;43.162;20.538;2023-07-16T02:04:43;8.73;;;6.90;;
55150;SDS011;41041;43.162;20.538;2023-07-16T02:07:10;14.35;;;7.20;;
55150;SDS011;41041;43.162;20.538;2023-07-16T02:09:36;8.40;;;6.88;;
55150;SDS011;41041;43.162;20.538;2023-07-16T02:17:27;12.98;;;7.22;;
55150;SDS011;41041;43.162;20.538;2023-07-16T02:19:53;9.35;;;7.35;;
55150;SDS011;41041;43.162;20.538;2023-07-16T02:22:19;10.02;;;6.80;;
55150;SDS011;41041;43.162;20.538;2023-07-16T02:24:46;10.10;;;6.82;;
55150;SDS011;41041;43.162;20.538;2023-07-16T02:27:12;11.55;;;6.90;;
55150;SDS011;41041;43.162;20.538;2023-07-16T02:29:38;10.88;;;6.93;;
55150;SDS011;41041;43.162;20.538;2023-07-16T02:32:04;12.35;;;7.18;;
55150;SDS011;41041;43.162;20.538;2023-07-16T02:34:31;11.10;;;7.50;;
55150;SDS011;41041;43.162;20.538;2023-07-16T02:36:57;13.93;;;7.10;;
55150;SDS011;41041;43.162;20.538;2023-07-16T02:39:23;12.10;;;7.68;;
55150;SDS011;41041;43.162;20.538;2023-07-16T02:41:50;9.60;;;7.45;;
55150;SDS011;41041;43.162;20.538;2023-07-16T02:44:16;11.40;;;7.70;;
55150;SDS011;41041;43.162;20.538;2023-07-16T02:46:42;9.93;;;7.03;;
55150;SDS011;41041;43.162;20.538;2023-07-16T02:49:09;10.85;;;7.82;;
55150;SDS011;41041;43.162;20.538;2023-07-16T02:51:35;9.75;;;7.60;;
55150;SDS011;41041;43.162;20.538;2023-07-16T02:54:01;9.65;;;7.35;;
55150;SDS011;41041;43.162;20.538;2023-07-16T02:56:28;14.00;;;7.50;;
55150;SDS011;41041;43.162;20.538;2023-07-16T02:58:54;11.80;;;7.15;;
55150;SDS011;41041;43.162;20.538;2023-07-16T03:01:20;11.85;;;6.80;;
55150;SDS011;41041;43.162;20.538;2023-07-16T03:03:53;13.50;;;7.60;;
55150;SDS011;41041;43.162;20.538;2023-07-16T03:06:19;9.93;;;7.50;;
55150;SDS011;41041;43.162;20.538;2023-07-16T03:08:45;10.13;;;7.50;;
55150;SDS011;41041;43.162;20.538;2023-07-16T03:13:41;10.85;;;7.63;;
55150;SDS011;41041;43.162;20.538;2023-07-16T03:16:07;12.27;;;7.32;;
55150;SDS011;41041;43.162;20.538;2023-07-16T03:18:43;10.50;;;7.00;;
55150;SDS011;41041;43.162;20.538;2023-07-16T03:21:12;10.80;;;7.22;;
55150;SDS011;41041;43.162;20.538;2023-07-16T03:23:38;9.40;;;6.90;;
55150;SDS011;41041;43.162;20.538;2023-07-16T03:28:34;10.77;;;7.40;;
55150;SDS011;41041;43.162;20.538;2023-07-16T03:31:01;11.27;;;7.55;;
55150;SDS011;41041;43.162;20.538;2023-07-16T03:33:28;8.85;;;6.93;;
55150;SDS011;41041;43.162;20.538;2023-07-16T03:35:54;10.60;;;7.50;;
55150;SDS011;41041;43.162;20.538;2023-07-16T03:38:20;11.48;;;7.63;;
55150;SDS011;41041;43.162;20.538;2023-07-16T03:40:47;10.77;;;7.47;;
55150;SDS011;41041;43.162;20.538;2023-07-16T03:43:14;10.65;;;6.95;;
55150;SDS011;41041;43.162;20.538;2023-07-16T03:45:40;9.38;;;7.20;;
55150;SDS011;41041;43.162;20.538;2023-07-16T03:48:07;10.43;;;7.40;;
55150;SDS011;41041;43.162;20.538;2023-07-16T03:50:33;10.95;;;7.32;;
55150;SDS011;41041;43.162;20.538;2023-07-16T03:52:59;8.40;;;7.00;;
55150;SDS011;41041;43.162;20.538;2023-07-16T03:55:25;11.65;;;7.60;;
55150;SDS011;41041;43.162;20.538;2023-07-16T03:57:51;12.85;;;7.43;;
55150;SDS011;41041;43.162;20.538;2023-07-16T04:00:18;10.02;;;7.57;;
55150;SDS011;41041;43.162;20.538;2023-07-16T04:02:44;12.48;;;7.10;;
55150;SDS011;41041;43.162;20.538;2023-07-16T04:05:10;11.30;;;7.50;;
55150;SDS011;41041;43.162;20.538;2023-07-16T04:07:36;10.88;;;6.88;;
55150;SDS011;41041;43.162;20.538;2023-07-16T04:10:03;10.90;;;7.63;;
55150;SDS011;41041;43.162;20.538;2023-07-16T04:12:29;11.48;;;7.72;;
55150;SDS011;41041;43.162;20.538;2023-07-16T04:14:56;10.70;;;7.30;;
55150;SDS011;41041;43.162;20.538;2023-07-16T04:17:23;10.25;;;7.60;;
55150;SDS011;41041;43.162;20.538;2023-07-16T04:19:49;8.75;;;6.90;;
55150;SDS011;41041;43.162;20.538;2023-07-16T04:22:15;10.82;;;7.38;;
55150;SDS011;41041;43.162;20.538;2023-07-16T04:24:41;8.45;;;6.82;;
55150;SDS011;41041;43.162;20.538;2023-07-16T04:27:07;9.32;;;7.10;;
55150;SDS011;41041;43.162;20.538;2023-07-16T04:29:33;9.70;;;6.80;;
55150;SDS011;41041;43.162;20.538;2023-07-16T04:32:00;11.98;;;7.95;;
55150;SDS011;41041;43.162;20.538;2023-07-16T04:34:26;13.23;;;7.68;;
55150;SDS011;41041;43.162;20.538;2023-07-16T04:36:52;9.43;;;7.10;;
55150;SDS011;41041;43.162;20.538;2023-07-16T04:39:19;12.13;;;7.38;;
55150;SDS011;41041;43.162;20.538;2023-07-16T04:41:45;9.40;;;7.07;;
55150;SDS011;41041;43.162;20.538;2023-07-16T04:44:12;9.23;;;6.85;;
55150;SDS011;41041;43.162;20.538;2023-07-16T04:46:38;10.85;;;7.00;;
55150;SDS011;41041;43.162;20.538;2023-07-16T04:49:04;9.75;;;7.15;;
55150;SDS011;41041;43.162;20.538;2023-07-16T04:51:32;13.23;;;7.47;;
55150;SDS011;41041;43.162;20.538;2023-07-16T04:53:58;11.57;;;7.55;;
55150;SDS011;41041;43.162;20.538;2023-07-16T04:56:24;10.18;;;7.65;;
55150;SDS011;41041;43.162;20.538;2023-07-16T04:58:50;13.30;;;7.80;;
55150;SDS011;41041;43.162;20.538;2023-07-16T05:01:17;12.57;;;8.10;;
55150;SDS011;41041;43.162;20.538;2023-07-16T05:03:43;10.82;;;7.82;;
55150;SDS011;41041;43.162;20.538;2023-07-16T05:06:09;11.95;;;8.05;;
55150;SDS011;41041;43.162;20.538;2023-07-16T05:08:35;11.73;;;7.70;;
55150;SDS011;41041;43.162;20.538;2023-07-16T05:11:01;12.10;;;7.75;;
55150;SDS011;41041;43.162;20.538;2023-07-16T05:16:25;12.30;;;8.00;;
55150;SDS011;41041;43.162;20.538;2023-07-16T05:18:51;13.82;;;8.40;;
55150;SDS011;41041;43.162;20.538;2023-07-16T05:21:20;12.75;;;8.25;;
55150;SDS011;41041;43.162;20.538;2023-07-16T05:23:46;15.75;;;10.48;;
55150;SDS011;41041;43.162;20.538;2023-07-16T05:26:12;16.83;;;9.50;;
55150;SDS011;41041;43.162;20.538;2023-07-16T05:28:39;10.93;;;8.93;;
55150;SDS011;41041;43.162;20.538;2023-07-16T05:31:05;13.80;;;9.48;;
55150;SDS011;41041;43.162;20.538;2023-07-16T05:33:32;16.08;;;9.35;;
55150;SDS011;41041;43.162;20.538;2023-07-16T05:36:00;13.60;;;8.98;;
55150;SDS011;41041;43.162;20.538;2023-07-16T05:38:26;14.52;;;9.32;;
55150;SDS011;41041;43.162;20.538;2023-07-16T05:40:52;15.50;;;9.00;;
55150;SDS011;41041;43.162;20.538;2023-07-16T05:43:18;11.35;;;9.18;;
55150;SDS011;41041;43.162;20.538;2023-07-16T05:45:44;13.13;;;8.75;;
55150;SDS011;41041;43.162;20.538;2023-07-16T05:48:10;13.35;;;8.77;;
55150;SDS011;41041;43.162;20.538;2023-07-16T05:50:37;12.73;;;8.52;;
55150;SDS011;41041;43.162;20.538;2023-07-16T05:53:03;12.07;;;8.45;;
55150;SDS011;41041;43.162;20.538;2023-07-16T05:55:29;10.50;;;8.10;;
55150;SDS011;41041;43.162;20.538;2023-07-16T05:57:55;13.27;;;8.25;;
55150;SDS011;41041;43.162;20.538;2023-07-16T06:00:21;13.32;;;8.30;;
55150;SDS011;41041;43.162;20.538;2023-07-16T06:02:47;17.58;;;8.45;;
55150;SDS011;41041;43.162;20.538;2023-07-16T06:05:14;12.20;;;8.77;;
55150;SDS011;41041;43.162;20.538;2023-07-16T06:07:40;13.20;;;8.65;;
55150;SDS011;41041;43.162;20.538;2023-07-16T06:10:06;12.25;;;8.65;;
55150;SDS011;41041;43.162;20.538;2023-07-16T06:12:32;17.73;;;8.93;;
55150;SDS011;41041;43.162;20.538;2023-07-16T06:14:59;14.40;;;8.75;;
55150;SDS011;41041;43.162;20.538;2023-07-16T06:17:25;12.65;;;8.90;;
55150;SDS011;41041;43.162;20.538;2023-07-16T06:19:51;13.45;;;8.73;;
55150;SDS011;41041;43.162;20.538;2023-07-16T06:22:29;10.95;;;8.20;;
55150;SDS011;41041;43.162;20.538;2023-07-16T06:24:55;13.02;;;8.60;;
55150;SDS011;41041;43.162;20.538;2023-07-16T06:27:21;14.65;;;8.55;;
55150;SDS011;41041;43.162;20.538;2023-07-16T06:29:55;13.85;;;8.68;;
55150;SDS011;41041;43.162;20.538;2023-07-16T06:32:21;12.80;;;8.23;;
55150;SDS011;41041;43.162;20.538;2023-07-16T06:34:47;12.90;;;7.95;;
55150;SDS011;41041;43.162;20.538;2023-07-16T06:37:13;12.32;;;7.90;;
55150;SDS011;41041;43.162;20.538;2023-07-16T06:39:39;13.85;;;8.13;;
55150;SDS011;41041;43.162;20.538;2023-07-16T06:42:05;11.88;;;7.50;;
55150;SDS011;41041;43.162;20.538;2023-07-16T06:44:32;13.68;;;7.20;;
55150;SDS011;41041;43.162;20.538;2023-07-16T06:46:58;10.70;;;7.78;;
55150;SDS011;41041;43.162;20.538;2023-07-16T06:49:24;9.88;;;7.35;;
55150;SDS011;41041;43.162;20.538;2023-07-16T06:51:50;11.95;;;7.78;;
55150;SDS011;41041;43.162;20.538;2023-07-16T06:54:16;11.07;;;7.80;;
55150;SDS011;41041;43.162;20.538;2023-07-16T06:56:42;13.43;;;7.88;;
55150;SDS011;41041;43.162;20.538;2023-07-16T06:59:18;13.52;;;7.38;;
55150;SDS011;41041;43.162;20.538;2023-07-16T07:01:44;11.88;;;7.50;;
55150;SDS011;41041;43.162;20.538;2023-07-16T07:04:10;17.60;;;7.93;;
55150;SDS011;41041;43.162;20.538;2023-07-16T07:09:10;12.55;;;7.80;;
55150;SDS011;41041;43.162;20.538;2023-07-16T07:11:35;14.73;;;8.50;;
55150;SDS011;41041;43.162;20.538;2023-07-16T07:16:47;10.82;;;8.23;;
55150;SDS011;41041;43.162;20.538;2023-07-16T07:19:13;15.50;;;8.68;;
55150;SDS011;41041;43.162;20.538;2023-07-16T07:21:39;14.90;;;7.82;;
55150;SDS011;41041;43.162;20.538;2023-07-16T07:24:05;13.65;;;8.00;;
55150;SDS011;41041;43.162;20.538;2023-07-16T07:26:31;13.57;;;8.13;;
55150;SDS011;41041;43.162;20.538;2023-07-16T07:28:59;12.40;;;9.00;;
55150;SDS011;41041;43.162;20.538;2023-07-16T07:31:25;15.00;;;10.20;;
55150;SDS011;41041;43.162;20.538;2023-07-16T07:33:56;17.58;;;11.63;;
55150;SDS011;41041;43.162;20.538;2023-07-16T07:36:24;15.10;;;11.68;;
55150;SDS011;41041;43.162;20.538;2023-07-16T07:38:51;17.15;;;9.88;;
55150;SDS011;41041;43.162;20.538;2023-07-16T07:41:17;14.50;;;8.90;;
55150;SDS011;41041;43.162;20.538;2023-07-16T07:43:43;16.58;;;10.18;;
55150;SDS011;41041;43.162;20.538;2023-07-16T07:46:11;12.35;;;8.50;;
55150;SDS011;41041;43.162;20.538;2023-07-16T07:48:37;14.98;;;8.35;;
55150;SDS011;41041;43.162;20.538;2023-07-16T07:51:10;12.32;;;8.27;;
55150;SDS011;41041;43.162;20.538;2023-07-16T07:53:36;15.77;;;9.57;;
55150;SDS011;41041;43.162;20.538;2023-07-16T07:56:01;17.30;;;9.73;;
55150;SDS011;41041;43.162;20.538;2023-07-16T07:58:28;33.35;;;16.25;;
55150;SDS011;41041;43.162;20.538;2023-07-16T08:00:53;16.85;;;8.68;;
55150;SDS011;41041;43.162;20.538;2023-07-16T08:03:19;21.77;;;10.23;;
55150;SDS011;41041;43.162;20.538;2023-07-16T08:05:49;28.33;;;12.07;;
55150;SDS011;41041;43.162;20.538;2023-07-16T08:08:15;28.77;;;14.40;;
55150;SDS011;41041;43.162;20.538;2023-07-16T08:10:42;16.98;;;10.20;;
55150;SDS011;41041;43.162;20.538;2023-07-16T08:13:12;10.95;;;7.30;;
55150;SDS011;41041;43.162;20.538;2023-07-16T08:15:38;13.95;;;7.40;;
55150;SDS011;41041;43.162;20.538;2023-07-16T08:18:04;13.68;;;8.02;;
55150;SDS011;41041;43.162;20.538;2023-07-16T08:20:30;12.35;;;7.47;;
55150;SDS011;41041;43.162;20.538;2023-07-16T08:22:56;13.30;;;7.10;;
55150;SDS011;41041;43.162;20.538;2023-07-16T08:25:23;14.10;;;7.57;;
55150;SDS011;41041;43.162;20.538;2023-07-16T08:27:49;23.95;;;14.00;;
55150;SDS011;41041;43.162;20.538;2023-07-16T08:30:15;10.35;;;6.80;;
55150;SDS011;41041;43.162;20.538;2023-07-16T08:32:45;12.55;;;6.65;;
55150;SDS011;41041;43.162;20.538;2023-07-16T08:35:10;12.97;;;7.10;;
55150;SDS011;41041;43.162;20.538;2023-07-16T08:37:44;11.60;;;6.82;;
55150;SDS011;41041;43.162;20.538;2023-07-16T08:40:11;15.45;;;9.90;;
55150;SDS011;41041;43.162;20.538;2023-07-16T08:42:41;16.20;;;9.98;;
55150;SDS011;41041;43.162;20.538;2023-07-16T08:47:41;15.13;;;9.32;;
55150;SDS011;41041;43.162;20.538;2023-07-16T08:50:07;16.40;;;7.70;;
55150;SDS011;41041;43.162;20.538;2023-07-16T08:52:34;16.48;;;8.93;;
55150;SDS011;41041;43.162;20.538;2023-07-16T08:55:00;13.98;;;9.00;;
55150;SDS011;41041;43.162;20.538;2023-07-16T08:57:26;14.48;;;8.05;;
55150;SDS011;41041;43.162;20.538;2023-07-16T09:00:05;13.85;;;6.93;;
55150;SDS011;41041;43.162;20.538;2023-07-16T09:02:31;14.05;;;7.00;;
55150;SDS011;41041;43.162;20.538;2023-07-16T09:04:57;16.52;;;8.25;;
55150;SDS011;41041;43.162;20.538;2023-07-16T09:07:25;14.55;;;6.97;;
55150;SDS011;41041;43.162;20.538;2023-07-16T09:09:57;11.27;;;6.95;;
55150;SDS011;41041;43.162;20.538;2023-07-16T09:12:26;12.80;;;6.93;;
55150;SDS011;41041;43.162;20.538;2023-07-16T09:14:58;18.00;;;7.82;;
55150;SDS011;41041;43.162;20.538;2023-07-16T09:17:24;18.17;;;7.60;;
55150;SDS011;41041;43.162;20.538;2023-07-16T09:19:50;13.65;;;8.02;;
55150;SDS011;41041;43.162;20.538;2023-07-16T09:22:17;13.35;;;7.68;;
55150;SDS011;41041;43.162;20.538;2023-07-16T09:24:44;12.90;;;6.97;;
55150;SDS011;41041;43.162;20.538;2023-07-16T09:27:11;11.95;;;6.07;;
55150;SDS011;41041;43.162;20.538;2023-07-16T09:29:38;15.32;;;6.30;;
55150;SDS011;41041;43.162;20.538;2023-07-16T09:32:04;14.15;;;6.25;;
55150;SDS011;41041;43.162;20.538;2023-07-16T09:34:31;12.55;;;6.30;;
55150;SDS011;41041;43.162;20.538;2023-07-16T09:36:58;12.98;;;6.72;;
55150;SDS011;41041;43.162;20.538;2023-07-16T09:39:25;14.15;;;6.43;;
55150;SDS011;41041;43.162;20.538;2023-07-16T09:41:51;11.85;;;6.20;;
55150;SDS011;41041;43.162;20.538;2023-07-16T09:44:17;11.63;;;5.13;;
55150;SDS011;41041;43.162;20.538;2023-07-16T09:46:44;12.15;;;4.63;;
55150;SDS011;41041;43.162;20.538;2023-07-16T09:49:11;9.57;;;5.18;;
55150;SDS011;41041;43.162;20.538;2023-07-16T09:51:37;8.88;;;4.95;;
55150;SDS011;41041;43.162;20.538;2023-07-16T09:54:04;11.65;;;5.50;;
55150;SDS011;41041;43.162;20.538;2023-07-16T09:56:44;12.75;;;5.60;;
55150;SDS011;41041;43.162;20.538;2023-07-16T09:59:12;13.55;;;5.55;;
55150;SDS011;41041;43.162;20.538;2023-07-16T10:01:39;10.60;;;5.40;;
55150;SDS011;41041;43.162;20.538;2023-07-16T10:04:14;10.63;;;5.10;;
55150;SDS011;41041;43.162;20.538;2023-07-16T10:06:48;10.57;;;5.22;;
55150;SDS011;41041;43.162;20.538;2023-07-16T10:09:32;9.60;;;5.22;;
55150;SDS011;41041;43.162;20.538;2023-07-16T10:14:53;9.98;;;4.68;;
55150;SDS011;41041;43.162;20.538;2023-07-16T10:17:23;10.85;;;4.88;;
55150;SDS011;41041;43.162;20.538;2023-07-16T10:22:32;9.77;;;4.65;;
55150;SDS011;41041;43.162;20.538;2023-07-16T10:24:58;9.63;;;5.00;;
55150;SDS011;41041;43.162;20.538;2023-07-16T10:27:32;13.95;;;4.95;;
55150;SDS011;41041;43.162;20.538;2023-07-16T10:30:02;9.85;;;4.63;;
55150;SDS011;41041;43.162;20.538;2023-07-16T10:32:31;9.25;;;5.25;;
55150;SDS011;41041;43.162;20.538;2023-07-16T10:34:57;13.95;;;5.13;;
55150;SDS011;41041;43.162;20.538;2023-07-16T10:37:23;10.00;;;4.55;;
55150;SDS011;41041;43.162;20.538;2023-07-16T10:39:51;10.55;;;4.40;;
55150;SDS011;41041;43.162;20.538;2023-07-16T10:42:19;7.45;;;4.32;;
55150;SDS011;41041;43.162;20.538;2023-07-16T10:44:49;10.27;;;4.30;;
55150;SDS011;41041;43.162;20.538;2023-07-16T10:47:29;9.98;;;4.90;;
55150;SDS011;41041;43.162;20.538;2023-07-16T10:52:22;6.47;;;4.32;;
55150;SDS011;41041;43.162;20.538;2023-07-16T10:54:49;11.05;;;4.80;;
55150;SDS011;41041;43.162;20.538;2023-07-16T10:59:45;10.00;;;4.43;;
55150;SDS011;41041;43.162;20.538;2023-07-16T11:02:13;11.05;;;4.95;;
55150;SDS011;41041;43.162;20.538;2023-07-16T11:04:40;15.88;;;5.15;;
55150;SDS011;41041;43.162;20.538;2023-07-16T11:07:07;10.35;;;4.53;;
55150;SDS011;41041;43.162;20.538;2023-07-16T11:09:35;10.52;;;5.05;;
55150;SDS011;41041;43.162;20.538;2023-07-16T11:15:12;8.63;;;4.75;;
55150;SDS011;41041;43.162;20.538;2023-07-16T11:17:38;11.82;;;4.93;;
55150;SDS011;41041;43.162;20.538;2023-07-16T11:20:06;10.75;;;4.30;;
55150;SDS011;41041;43.162;20.538;2023-07-16T11:22:36;10.27;;;4.50;;
55150;SDS011;41041;43.162;20.538;2023-07-16T11:25:03;8.57;;;4.68;;
55150;SDS011;41041;43.162;20.538;2023-07-16T11:27:45;10.55;;;4.43;;
55150;SDS011;41041;43.162;20.538;2023-07-16T11:30:11;9.90;;;4.47;;
55150;SDS011;41041;43.162;20.538;2023-07-16T11:32:46;9.80;;;4.68;;
55150;SDS011;41041;43.162;20.538;2023-07-16T11:35:17;7.07;;;3.78;;
55150;SDS011;41041;43.162;20.538;2023-07-16T11:40:15;9.63;;;3.72;;
55150;SDS011;41041;43.162;20.538;2023-07-16T11:42:48;7.10;;;4.55;;
55150;SDS011;41041;43.162;20.538;2023-07-16T12:44:22;11.95;;;5.28;;
55150;SDS011;41041;43.162;20.538;2023-07-16T12:47:08;7.95;;;5.22;;
55150;SDS011;41041;43.162;20.538;2023-07-16T12:49:34;8.13;;;4.88;;
55150;SDS011;41041;43.162;20.538;2023-07-16T12:52:03;13.07;;;5.50;;
55150;SDS011;41041;43.162;20.538;2023-07-16T15:31:19;7.40;;;4.05;;
55150;SDS011;41041;43.162;20.538;2023-07-16T15:44:59;8.00;;;4.38;;
55150;SDS011;41041;43.162;20.538;2023-07-16T15:47:47;12.68;;;4.82;;
55150;SDS011;41041;43.162;20.538;2023-07-16T15:50:20;9.75;;;4.40;;
55150;SDS011;41041;43.162;20.538;2023-07-16T16:24:49;10.05;;;5.53;;
55150;SDS011;41041;43.162;20.538;2023-07-16T18:12:46;20.05;;;7.43;;
55150;SDS011;41041;43.162;20.538;2023-07-16T18:15:15;11.45;;;6.90;;
55150;SDS011;41041;43.162;20.538;2023-07-16T18:17:46;12.10;;;7.25;;
55150;SDS011;41041;43.162;20.538;2023-07-16T18:20:12;12.00;;;6.88;;
55150;SDS011;41041;43.162;20.538;2023-07-16T18:22:51;13.55;;;7.50;;
55150;SDS011;41041;43.162;20.538;2023-07-16T18:25:19;13.35;;;7.45;;
55150;SDS011;41041;43.162;20.538;2023-07-16T18:27:51;19.63;;;7.23;;
55150;SDS011;41041;43.162;20.538;2023-07-16T18:30:22;16.38;;;6.80;;
55150;SDS011;41041;43.162;20.538;2023-07-16T18:32:48;14.90;;;7.05;;
55150;SDS011;41041;43.162;20.538;2023-07-16T18:35:14;14.15;;;6.75;;
55150;SDS011;41041;43.162;20.538;2023-07-16T18:37:53;14.52;;;7.20;;
55150;SDS011;41041;43.162;20.538;2023-07-16T18:40:24;13.02;;;6.80;;
55150;SDS011;41041;43.162;20.538;2023-07-16T18:51:21;9.75;;;6.95;;
55150;SDS011;41041;43.162;20.538;2023-07-16T19:00:10;11.32;;;7.60;;
55150;SDS011;41041;43.162;20.538;2023-07-16T19:02:36;14.20;;;7.60;;
55150;SDS011;41041;43.162;20.538;2023-07-16T19:05:03;12.93;;;7.65;;
55150;SDS011;41041;43.162;20.538;2023-07-16T19:07:32;14.73;;;7.38;;
55150;SDS011;41041;43.162;20.538;2023-07-16T19:10:01;13.32;;;7.80;;
55150;SDS011;41041;43.162;20.538;2023-07-16T19:12:40;15.73;;;8.10;;
55150;SDS011;41041;43.162;20.538;2023-07-16T19:15:06;13.80;;;7.75;;
55150;SDS011;41041;43.162;20.538;2023-07-16T19:20:08;14.13;;;7.72;;
55150;SDS011;41041;43.162;20.538;2023-07-16T19:22:35;12.75;;;7.35;;
55150;SDS011;41041;43.162;20.538;2023-07-16T19:25:02;12.23;;;7.97;;
55150;SDS011;41041;43.162;20.538;2023-07-16T19:27:31;11.18;;;7.22;;
55150;SDS011;41041;43.162;20.538;2023-07-16T19:29:57;13.18;;;7.65;;
55150;SDS011;41041;43.162;20.538;2023-07-16T19:32:28;13.55;;;7.60;;
55150;SDS011;41041;43.162;20.538;2023-07-16T19:34:57;13.50;;;7.72;;
55150;SDS011;41041;43.162;20.538;2023-07-16T19:37:58;12.75;;;7.70;;
55150;SDS011;41041;43.162;20.538;2023-07-16T19:40:25;13.55;;;8.15;;
55150;SDS011;41041;43.162;20.538;2023-07-16T19:42:51;17.92;;;7.70;;
55150;SDS011;41041;43.162;20.538;2023-07-16T19:53:58;11.85;;;8.50;;
55150;SDS011;41041;43.162;20.538;2023-07-16T20:02:21;16.77;;;8.02;;
55150;SDS011;41041;43.162;20.538;2023-07-16T20:17:05;11.45;;;8.25;;
55150;SDS011;41041;43.162;20.538;2023-07-16T20:19:31;13.98;;;8.30;;
55150;SDS011;41041;43.162;20.538;2023-07-16T20:21:57;12.77;;;8.10;;
55150;SDS011;41041;43.162;20.538;2023-07-16T20:24:34;13.80;;;7.78;;
55150;SDS011;41041;43.162;20.538;2023-07-16T20:27:00;13.05;;;7.93;;
55150;SDS011;41041;43.162;20.538;2023-07-16T20:29:26;15.85;;;8.43;;
55150;SDS011;41041;43.162;20.538;2023-07-16T20:31:52;14.50;;;7.97;;
55150;SDS011;41041;43.162;20.538;2023-07-16T20:34:18;13.02;;;7.68;;
55150;SDS011;41041;43.162;20.538;2023-07-16T20:36:44;14.32;;;8.27;;
55150;SDS011;41041;43.162;20.538;2023-07-16T20:39:10;12.63;;;8.10;;
55150;SDS011;41041;43.162;20.538;2023-07-16T20:41:36;16.08;;;7.50;;
55150;SDS011;41041;43.162;20.538;2023-07-16T20:44:05;14.98;;;8.18;;
55150;SDS011;41041;43.162;20.538;2023-07-16T20:46:35;14.90;;;8.38;;
55150;SDS011;41041;43.162;20.538;2023-07-16T20:49:01;13.65;;;7.97;;
55150;SDS011;41041;43.162;20.538;2023-07-16T20:51:28;13.57;;;7.85;;
55150;SDS011;41041;43.162;20.538;2023-07-16T20:53:54;11.85;;;8.23;;
55150;SDS011;41041;43.162;20.538;2023-07-16T20:56:22;15.45;;;8.52;;
55150;SDS011;41041;43.162;20.538;2023-07-16T20:58:49;15.85;;;8.15;;
55150;SDS011;41041;43.162;20.538;2023-07-16T21:01:15;12.40;;;7.90;;
55150;SDS011;41041;43.162;20.538;2023-07-16T21:03:42;16.38;;;8.48;;
55150;SDS011;41041;43.162;20.538;2023-07-16T21:06:20;12.27;;;7.80;;
55150;SDS011;41041;43.162;20.538;2023-07-16T21:32:22;15.88;;;8.38;;
55150;SDS011;41041;43.162;20.538;2023-07-16T21:35:16;12.57;;;7.68;;
55150;SDS011;41041;43.162;20.538;2023-07-16T21:37:46;13.25;;;8.48;;
55150;SDS011;41041;43.162;20.538;2023-07-16T21:46:09;14.18;;;8.85;;
55150;SDS011;41041;43.162;20.538;2023-07-16T21:48:35;16.02;;;8.43;;
55150;SDS011;41041;43.162;20.538;2023-07-16T21:51:07;17.02;;;8.10;;
55150;SDS011;41041;43.162;20.538;2023-07-16T21:59:26;11.98;;;8.30;;
